createdAt,value
2018-10-18T00:00:00.720Z,101558.19
2018-10-18T00:02:30.041Z,101557.27
2018-10-18T00:04:59.303Z,101556.81
2018-10-18T00:07:29.291Z,101554.86
2018-10-18T00:09:58.756Z,101554.56
2018-10-18T00:12:28.509Z,101550.25
2018-10-18T00:14:57.912Z,101561.12
2018-10-18T00:17:32.360Z,101552.98
2018-10-18T00:20:01.999Z,101556.05
2018-10-18T00:22:32.018Z,101550.81
2018-10-18T00:25:01.417Z,101559.33
2018-10-18T00:27:30.748Z,101552.77
2018-10-18T00:30:00.413Z,101555.20
2018-10-18T00:32:30.091Z,101560.50
2018-10-18T00:34:59.611Z,101561.00
2018-10-18T00:37:29.148Z,101556.92
2018-10-18T00:39:58.851Z,101557.87
2018-10-18T00:42:28.899Z,101560.36
2018-10-18T00:44:59.197Z,101560.98
2018-10-18T00:47:29.078Z,101558.53
2018-10-18T00:49:58.498Z,101565.78
2018-10-18T00:52:29.226Z,101567.83
2018-10-18T00:54:58.722Z,101566.04
2018-10-18T00:57:28.151Z,101574.47
2018-10-18T00:59:57.495Z,101568.93
2018-10-18T01:02:28.145Z,101578.00
2018-10-18T01:04:57.800Z,101575.27
2018-10-18T01:07:27.316Z,101577.13
2018-10-18T01:09:56.837Z,101586.05
2018-10-18T01:12:28.712Z,101583.16
2018-10-18T01:14:58.832Z,101583.77
2018-10-18T01:17:28.705Z,101585.25
2018-10-18T01:19:59.621Z,101582.59
2018-10-18T01:22:29.193Z,101584.30
2018-10-18T01:25:00.233Z,101580.73
2018-10-18T01:27:30.090Z,101587.61
2018-10-18T01:29:59.930Z,101587.19
2018-10-18T01:32:29.560Z,101590.95
2018-10-18T01:35:18.692Z,101599.08
2018-10-18T01:37:50.611Z,101596.23
2018-10-18T01:40:19.899Z,101599.23
2018-10-18T01:42:49.390Z,101600.14
2018-10-18T01:45:19.019Z,101602.57
2018-10-18T01:47:48.439Z,101605.38
2018-10-18T01:50:18.316Z,101592.02
2018-10-18T01:52:47.932Z,101601.55
2018-10-18T01:55:17.385Z,101595.06
2018-10-18T01:57:46.921Z,101597.87
2018-10-18T02:00:16.411Z,101589.52
2018-10-18T02:02:46.278Z,101594.34
2018-10-18T02:05:17.695Z,101598.02
2018-10-18T02:07:47.996Z,101600.45
2018-10-18T02:10:25.821Z,101604.02
2018-10-18T02:12:56.589Z,101596.55
2018-10-18T02:15:48.033Z,101599.20
2018-10-18T02:18:39.607Z,101602.00
2018-10-18T02:21:11.910Z,101602.16
2018-10-18T02:23:43.972Z,101613.16
2018-10-18T02:26:13.476Z,101612.40
2018-10-18T02:28:43.934Z,101608.27
2018-10-18T02:31:13.479Z,101606.94
2018-10-18T02:33:42.973Z,101609.66
2018-10-18T02:36:12.484Z,101612.09
2018-10-18T02:38:42.059Z,101610.99
2018-10-18T02:41:11.541Z,101614.41
2018-10-18T02:43:42.425Z,101623.25
2018-10-18T02:46:11.825Z,101622.87
2018-10-18T02:48:42.415Z,101619.50
2018-10-18T02:51:13.995Z,101613.27
2018-10-18T02:53:45.541Z,101609.97
2018-10-18T02:56:15.575Z,101609.82
2018-10-18T02:58:45.056Z,101614.19
2018-10-18T03:01:14.854Z,101613.66
2018-10-18T03:03:45.411Z,101612.63
2018-10-18T03:06:14.907Z,101616.05
2018-10-18T03:08:44.620Z,101615.66
2018-10-18T03:11:14.065Z,101612.63
2018-10-18T03:13:43.491Z,101620.02
2018-10-18T03:16:13.056Z,101617.94
2018-10-18T03:18:42.371Z,101621.73
2018-10-18T03:21:12.472Z,101622.18
2018-10-18T03:23:42.270Z,101624.30
2018-10-18T03:26:13.782Z,101620.47
2018-10-18T03:28:43.279Z,101621.34
2018-10-18T03:31:13.405Z,101626.66
2018-10-18T03:33:43.192Z,101628.44
2018-10-18T03:36:13.361Z,101630.56
2018-10-18T03:38:43.436Z,101630.07
2018-10-18T03:41:13.206Z,101627.00
2018-10-18T03:43:43.002Z,101632.84
2018-10-18T03:46:14.075Z,101629.08
2018-10-18T03:48:43.742Z,101630.64
2018-10-18T03:51:16.327Z,101637.20
2018-10-18T03:53:45.790Z,101647.37
2018-10-18T03:56:15.373Z,101647.37
2018-10-18T03:58:44.836Z,101651.05
2018-10-18T04:01:14.837Z,101652.61
2018-10-18T04:03:44.442Z,101652.31
2018-10-18T04:06:15.964Z,101653.67
2018-10-18T04:08:45.977Z,101657.59
2018-10-18T04:11:16.569Z,101659.67
2018-10-18T04:13:46.249Z,101655.16
2018-10-18T04:16:16.548Z,101659.86
2018-10-18T04:18:46.903Z,101656.90
2018-10-18T04:21:16.338Z,101652.53
2018-10-18T04:23:45.974Z,101651.31
2018-10-18T04:26:15.471Z,101655.55
2018-10-18T04:28:44.839Z,101652.25
2018-10-18T04:31:21.493Z,101650.55
2018-10-18T04:33:51.032Z,101661.05
2018-10-18T04:36:20.621Z,101653.53
2018-10-18T04:38:49.929Z,101656.49
2018-10-18T04:41:19.426Z,101662.14
2018-10-18T04:43:49.102Z,101659.93
2018-10-18T04:46:19.860Z,101662.05
2018-10-18T04:48:49.551Z,101666.04
2018-10-18T04:51:20.171Z,101664.97
2018-10-18T04:53:50.066Z,101668.40
2018-10-18T04:56:19.594Z,101663.48
2018-10-18T04:58:49.990Z,101668.80
2018-10-18T05:01:19.668Z,101671.38
2018-10-18T05:03:49.326Z,101671.67
2018-10-18T05:06:19.074Z,101674.02
2018-10-18T05:08:48.386Z,101673.47
2018-10-18T05:11:17.756Z,101670.27
2018-10-18T05:13:47.148Z,101671.67
2018-10-18T05:16:16.565Z,101680.34
2018-10-18T05:18:46.065Z,101679.75
2018-10-18T05:21:15.592Z,101678.69
2018-10-18T05:23:45.195Z,101678.62
2018-10-18T05:26:15.870Z,101682.77
2018-10-18T05:28:45.984Z,101682.61
2018-10-18T05:31:15.655Z,101686.75
2018-10-18T05:33:45.419Z,101686.42
2018-10-18T05:36:14.948Z,101688.62
2018-10-18T05:38:44.273Z,101694.39
2018-10-18T05:41:13.801Z,101692.88
2018-10-18T05:43:43.226Z,101693.87
2018-10-18T05:46:13.353Z,101703.58
2018-10-18T05:48:42.919Z,101701.72
2018-10-18T05:51:12.719Z,101712.00
2018-10-18T05:53:44.135Z,101705.89
2018-10-18T05:56:13.591Z,101712.00
2018-10-18T05:58:43.234Z,101710.52
2018-10-18T06:01:12.940Z,101715.68
2018-10-18T06:03:42.595Z,101713.66
2018-10-18T06:06:12.003Z,101719.20
2018-10-18T06:08:41.963Z,101721.97
2018-10-18T06:11:30.488Z,101723.30
2018-10-18T06:14:01.105Z,101718.66
2018-10-18T06:16:31.202Z,101714.39
2018-10-18T06:19:01.148Z,101722.67
2018-10-18T06:21:30.702Z,101729.86
2018-10-18T06:24:01.169Z,101725.71
2018-10-18T06:26:30.726Z,101730.95
2018-10-18T06:29:00.398Z,101733.53
2018-10-18T06:31:30.954Z,101743.64
2018-10-18T06:34:00.746Z,101742.53
2018-10-18T06:36:30.238Z,101750.92
2018-10-18T06:38:59.664Z,101747.64
2018-10-18T06:41:29.179Z,101755.47
2018-10-18T06:43:59.166Z,101744.91
2018-10-18T06:46:28.730Z,101743.23
2018-10-18T06:48:59.444Z,101733.55
2018-10-18T06:51:28.872Z,101739.17
2018-10-18T06:53:58.491Z,101740.27
2018-10-18T06:56:27.862Z,101736.98
2018-10-18T06:58:57.859Z,101738.86
2018-10-18T07:01:27.286Z,101739.19
2018-10-18T07:03:56.855Z,101739.65
2018-10-18T07:06:26.861Z,101742.61
2018-10-18T07:08:56.616Z,101746.55
2018-10-18T07:11:27.008Z,101750.69
2018-10-18T07:13:56.812Z,101746.45
2018-10-18T07:16:27.662Z,101747.63
2018-10-18T07:18:58.483Z,101752.70
2018-10-18T07:21:28.020Z,101754.36
2018-10-18T07:23:58.575Z,101754.44
2018-10-18T07:26:30.185Z,101763.02
2018-10-18T07:29:00.847Z,101770.62
2018-10-18T07:31:30.292Z,101780.41
2018-10-18T07:33:59.995Z,101776.03
2018-10-18T07:36:29.389Z,101769.14
2018-10-18T07:38:58.854Z,101763.42
2018-10-18T07:41:28.469Z,101768.83
2018-10-18T07:43:58.528Z,101768.83
2018-10-18T07:46:27.979Z,101770.79
2018-10-18T07:48:58.415Z,101772.34
2018-10-18T07:51:27.858Z,101777.78
2018-10-18T07:53:57.687Z,101782.86
2018-10-18T07:56:28.612Z,101785.20
2018-10-18T07:58:58.924Z,101784.95
2018-10-18T08:01:29.063Z,101786.37
2018-10-18T08:03:58.818Z,101793.16
2018-10-18T08:06:28.928Z,101789.87
2018-10-18T08:08:58.646Z,101789.28
2018-10-18T08:11:28.345Z,101790.20
2018-10-18T08:13:57.791Z,101793.98
2018-10-18T08:16:27.533Z,101796.23
2018-10-18T08:18:57.476Z,101796.55
2018-10-18T08:21:27.080Z,101794.92
2018-10-18T08:23:56.828Z,101795.55
2018-10-18T08:26:26.350Z,101797.16
2018-10-18T08:28:55.889Z,101806.17
2018-10-18T08:31:25.466Z,101806.80
2018-10-18T08:33:55.269Z,101806.62
2018-10-18T08:36:24.952Z,101812.55
2018-10-18T08:38:54.561Z,101817.91
2018-10-18T08:41:26.175Z,101815.05
2018-10-18T08:43:55.798Z,101810.27
2018-10-18T08:46:25.160Z,101825.30
2018-10-18T08:48:55.117Z,101819.59
2018-10-18T08:51:24.778Z,101826.37
2018-10-18T08:53:54.088Z,101831.28
2018-10-18T08:56:23.778Z,101828.94
2018-10-18T08:58:53.959Z,101829.11
2018-10-18T09:01:24.536Z,101826.98
2018-10-18T09:03:54.237Z,101830.78
2018-10-18T09:06:24.212Z,101836.72
2018-10-18T09:08:54.007Z,101830.84
2018-10-18T09:11:23.495Z,101838.92
2018-10-18T09:13:52.973Z,101838.45
2018-10-18T09:16:23.567Z,101837.49
2018-10-18T09:18:53.053Z,101831.95
2018-10-18T09:21:23.009Z,101823.23
2018-10-18T09:23:53.672Z,101830.44
2018-10-18T09:26:22.895Z,101830.20
2018-10-18T09:28:52.326Z,101829.25
2018-10-18T09:31:21.750Z,101835.20
2018-10-18T09:33:51.706Z,101832.58
2018-10-18T09:36:21.063Z,101837.83
2018-10-18T09:38:51.066Z,101845.52
2018-10-18T09:41:22.775Z,101843.89
2018-10-18T09:43:57.356Z,101840.34
2018-10-18T09:46:27.177Z,101843.48
2018-10-18T09:48:56.598Z,101844.38
2018-10-18T09:51:26.221Z,101845.52
2018-10-18T09:53:56.060Z,101844.11
2018-10-18T09:56:25.468Z,101850.84
2018-10-18T09:58:54.940Z,101858.00
2018-10-18T10:01:29.567Z,101851.72
2018-10-18T10:03:59.154Z,101859.00
2018-10-18T10:06:29.304Z,101852.56
2018-10-18T10:08:59.005Z,101853.22
2018-10-18T10:11:28.554Z,101852.72
2018-10-18T10:13:59.708Z,101855.84
2018-10-18T10:16:29.316Z,101856.47
2018-10-18T10:18:58.790Z,101856.69
2018-10-18T10:21:28.143Z,101848.89
2018-10-18T10:23:57.638Z,101857.22
2018-10-18T10:26:27.143Z,101844.77
2018-10-18T10:28:56.725Z,101849.25
2018-10-18T10:31:27.446Z,101845.86
2018-10-18T10:33:57.012Z,101846.03
2018-10-18T10:36:27.470Z,101846.99
2018-10-18T10:38:56.865Z,101850.00
2018-10-18T10:41:26.265Z,101854.72
2018-10-18T10:43:55.973Z,101848.13
2018-10-18T10:46:25.567Z,101845.55
2018-10-18T10:48:54.994Z,101841.92
2018-10-18T10:51:24.683Z,101838.09
2018-10-18T10:53:54.049Z,101834.11
2018-10-18T10:56:23.851Z,101830.80
2018-10-18T10:58:53.439Z,101826.68
2018-10-18T11:01:24.458Z,101831.88
2018-10-18T11:03:57.340Z,101827.59
2018-10-18T11:06:26.887Z,101828.41
2018-10-18T11:08:58.213Z,101828.06
2018-10-18T11:11:27.644Z,101830.33
2018-10-18T11:13:57.128Z,101828.99
2018-10-18T11:16:26.486Z,101825.05
2018-10-18T11:18:55.907Z,101828.16
2018-10-18T11:21:26.484Z,101832.53
2018-10-18T11:23:55.971Z,101832.78
2018-10-18T11:26:25.324Z,101825.98
2018-10-18T11:28:54.852Z,101823.77
2018-10-18T11:31:24.369Z,101828.66
2018-10-18T11:33:54.273Z,101827.34
2018-10-18T11:36:30.693Z,101828.03
2018-10-18T11:39:00.175Z,101826.52
2018-10-18T11:41:29.843Z,101823.69
2018-10-18T11:43:59.298Z,101814.72
2018-10-18T11:46:30.305Z,101827.29
2018-10-18T11:48:59.774Z,101816.45
2018-10-18T11:51:29.187Z,101813.28
2018-10-18T11:53:58.699Z,101810.50
2018-10-18T11:56:28.186Z,101805.94
2018-10-18T11:58:57.617Z,101804.42
2018-10-18T12:01:27.121Z,101818.24
2018-10-18T12:03:57.284Z,101815.59
2018-10-18T12:06:26.861Z,101811.16
2018-10-18T12:08:56.370Z,101804.75
2018-10-18T12:11:25.987Z,101810.17
2018-10-18T12:13:56.919Z,101809.45
2018-10-18T12:16:29.598Z,101801.86
2018-10-18T12:19:00.533Z,101798.86
2018-10-18T12:21:30.136Z,101799.95
2018-10-18T12:24:00.534Z,101798.40
2018-10-18T12:26:30.452Z,101796.58
2018-10-18T12:29:00.079Z,101793.19
2018-10-18T12:31:29.740Z,101796.32
2018-10-18T12:33:59.917Z,101802.58
2018-10-18T12:36:31.451Z,101800.77
2018-10-18T12:39:01.010Z,101801.59
2018-10-18T12:41:30.904Z,101791.54
2018-10-18T12:44:02.574Z,101800.55
2018-10-18T12:46:33.194Z,101799.95
2018-10-18T12:49:02.582Z,101797.88
2018-10-18T12:51:34.078Z,101798.03
2018-10-18T12:54:04.677Z,101801.45
2018-10-18T12:56:34.115Z,101794.73
2018-10-18T12:59:03.478Z,101793.25
2018-10-18T13:01:32.874Z,101798.97
2018-10-18T13:04:02.918Z,101804.11
2018-10-18T13:06:32.532Z,101803.20
2018-10-18T13:09:02.433Z,101804.41
2018-10-18T13:11:32.906Z,101802.89
2018-10-18T13:14:03.445Z,101804.86
2018-10-18T13:16:32.879Z,101798.88
2018-10-18T13:19:02.644Z,101803.53
2018-10-18T13:21:35.859Z,101805.94
2018-10-18T13:24:05.535Z,101805.11
2018-10-18T13:26:35.624Z,101803.03
2018-10-18T13:29:06.398Z,101799.14
2018-10-18T13:31:35.870Z,101796.33
2018-10-18T13:34:06.898Z,101804.99
2018-10-18T13:36:36.569Z,101800.19
2018-10-18T13:39:10.115Z,101801.80
2018-10-18T13:41:39.985Z,101798.80
2018-10-18T13:44:09.456Z,101798.91
2018-10-18T13:46:39.382Z,101798.66
2018-10-18T13:49:08.907Z,101802.15
2018-10-18T13:51:38.319Z,101787.44
2018-10-18T13:54:07.763Z,101789.11
2018-10-18T13:56:37.602Z,101795.02
2018-10-18T13:59:17.806Z,101795.63
2018-10-18T14:01:47.163Z,101793.59
2018-10-18T14:04:16.712Z,101794.94
2018-10-18T14:06:46.066Z,101795.70
2018-10-18T14:09:16.136Z,101791.78
2018-10-18T14:11:45.648Z,101797.52
2018-10-18T14:14:15.528Z,101791.61
2018-10-18T14:16:45.066Z,101797.80
2018-10-18T14:19:16.492Z,101788.36
2018-10-18T14:21:46.148Z,101795.51
2018-10-18T14:24:15.907Z,101796.75
2018-10-18T14:26:45.331Z,101798.09
2018-10-18T14:29:16.631Z,101795.60
2018-10-18T14:31:46.013Z,101797.97
2018-10-18T14:34:17.078Z,101796.55
2018-10-18T14:36:46.686Z,101787.47
2018-10-18T14:39:15.954Z,101790.94
2018-10-18T14:41:45.490Z,101794.06
2018-10-18T14:44:16.240Z,101786.08
2018-10-18T14:46:46.067Z,101786.56
2018-10-18T14:49:15.431Z,101776.31
2018-10-18T14:51:44.732Z,101779.76
2018-10-18T14:54:14.264Z,101778.72
2018-10-18T14:56:43.732Z,101777.66
2018-10-18T14:59:14.275Z,101780.80
2018-10-18T15:01:44.497Z,101781.83
2018-10-18T15:04:14.523Z,101776.89
2018-10-18T15:06:44.569Z,101776.95
2018-10-18T15:09:14.716Z,101780.31
2018-10-18T15:11:44.532Z,101779.91
2018-10-18T15:14:14.304Z,101782.77
2018-10-18T15:16:43.966Z,101780.09
2018-10-18T15:19:13.474Z,101791.73
2018-10-18T15:21:43.621Z,101786.30
2018-10-18T15:24:13.403Z,101795.27
2018-10-18T15:26:43.197Z,101788.10
2018-10-18T15:29:12.716Z,101784.47
2018-10-18T15:31:42.361Z,101789.06
2018-10-18T15:34:11.967Z,101786.11
2018-10-18T15:36:41.483Z,101789.25
2018-10-18T15:39:12.374Z,101786.58
2018-10-18T15:41:42.531Z,101792.30
2018-10-18T15:44:12.654Z,101793.50
2018-10-18T15:46:42.134Z,101793.96
2018-10-18T15:49:12.678Z,101790.80
2018-10-18T15:51:43.022Z,101794.11
2018-10-18T15:54:12.558Z,101791.44
2018-10-18T15:56:41.777Z,101789.14
2018-10-18T15:59:11.283Z,101792.55
2018-10-18T16:01:41.715Z,101792.55
2018-10-18T16:04:12.759Z,101787.15
2018-10-18T16:06:42.472Z,101791.20
2018-10-18T16:09:13.740Z,101791.38
2018-10-18T16:11:43.179Z,101799.39
2018-10-18T16:14:12.915Z,101798.00
2018-10-18T16:16:42.792Z,101803.68
2018-10-18T16:19:14.526Z,101808.23
2018-10-18T16:21:43.917Z,101812.58
2018-10-18T16:24:13.736Z,101812.62
2018-10-18T16:26:43.422Z,101820.06
2018-10-18T16:29:12.931Z,101819.95
2018-10-18T16:31:42.330Z,101825.89
2018-10-18T16:34:11.685Z,101829.61
2018-10-18T16:36:41.182Z,101831.61
2018-10-18T16:39:12.641Z,101828.25
2018-10-18T16:41:43.221Z,101833.61
2018-10-18T16:44:12.754Z,101833.37
2018-10-18T16:46:42.420Z,101837.16
2018-10-18T16:49:12.185Z,101838.23
2018-10-18T16:51:41.790Z,101834.73
2018-10-18T16:54:11.140Z,101837.07
2018-10-18T16:56:40.514Z,101840.44
2018-10-18T16:59:10.013Z,101843.27
2018-10-18T17:01:39.501Z,101841.86
2018-10-18T17:04:08.977Z,101848.54
2018-10-18T17:06:38.157Z,101846.26
2018-10-18T17:09:09.768Z,101849.55
2018-10-18T17:11:39.709Z,101844.47
2018-10-18T17:14:10.045Z,101846.87
2018-10-18T17:16:39.706Z,101842.27
2018-10-18T17:19:09.624Z,101848.30
2018-10-18T17:21:39.747Z,101853.86
2018-10-18T17:24:10.904Z,101850.75
2018-10-18T17:26:40.759Z,101847.37
2018-10-18T17:29:10.819Z,101846.75
2018-10-18T17:31:40.326Z,101850.25
2018-10-18T17:34:10.163Z,101845.47
2018-10-18T17:36:39.957Z,101852.70
2018-10-18T17:39:11.385Z,101857.07
2018-10-18T17:41:41.223Z,101869.21
2018-10-18T17:44:11.172Z,101862.95
2018-10-18T17:46:41.042Z,101863.03
2018-10-18T17:49:10.581Z,101860.53
2018-10-18T17:51:39.948Z,101861.45
2018-10-18T17:54:09.808Z,101860.61
2018-10-18T17:56:39.522Z,101866.94
2018-10-18T17:59:09.282Z,101861.77
2018-10-18T18:01:39.099Z,101867.17
2018-10-18T18:04:09.300Z,101861.45
2018-10-18T18:06:38.947Z,101863.10
2018-10-18T18:09:08.220Z,101868.73
2018-10-18T18:11:37.735Z,101873.83
2018-10-18T18:14:07.466Z,101873.83
2018-10-18T18:16:37.495Z,101874.22
2018-10-18T18:19:07.264Z,101876.47
2018-10-18T18:21:37.531Z,101874.72
2018-10-18T18:24:07.092Z,101881.37
2018-10-18T18:26:45.219Z,101877.87
2018-10-18T18:29:06.751Z,101877.80
2018-10-18T18:31:36.226Z,101877.01
2018-10-18T18:34:05.957Z,101875.98
2018-10-18T18:36:35.512Z,101879.98
2018-10-18T18:39:06.919Z,101883.66
2018-10-18T18:41:36.326Z,101887.80
2018-10-18T18:44:06.418Z,101891.49
2018-10-18T18:46:35.889Z,101890.05
2018-10-18T18:49:05.627Z,101898.34
2018-10-18T18:51:35.381Z,101899.67
2018-10-18T18:54:05.138Z,101899.14
2018-10-18T18:56:34.747Z,101896.63
2018-10-18T18:59:04.876Z,101898.50
2018-10-18T19:01:34.827Z,101903.12
2018-10-18T19:04:04.289Z,101909.06
2018-10-18T19:06:33.991Z,101905.38
2018-10-18T19:09:05.915Z,101918.37
2018-10-18T19:11:35.662Z,101921.56
2018-10-18T19:14:05.939Z,101927.88
2018-10-18T19:16:35.714Z,101924.59
2018-10-18T19:19:05.704Z,101924.24
2018-10-18T19:21:35.687Z,101931.16
2018-10-18T19:24:05.518Z,101927.59
2018-10-18T19:26:35.394Z,101936.28
2018-10-18T19:29:05.598Z,101941.70
2018-10-18T19:31:35.141Z,101934.53
2018-10-18T19:34:04.628Z,101941.18
2018-10-18T19:36:34.353Z,101940.58
2018-10-18T19:39:05.156Z,101936.66
2018-10-18T19:41:34.682Z,101940.80
2018-10-18T19:44:04.434Z,101942.00
2018-10-18T19:46:34.531Z,101950.05
2018-10-18T19:49:04.412Z,101944.55
2018-10-18T19:51:35.046Z,101949.41
2018-10-18T19:54:04.512Z,101948.61
2018-10-18T19:56:34.270Z,101945.21
2018-10-18T19:59:03.699Z,101945.88
2018-10-18T20:01:33.359Z,101944.94
2018-10-18T20:04:03.383Z,101950.16
2018-10-18T20:06:33.187Z,101953.19
2018-10-18T20:09:03.600Z,101957.25
2018-10-18T20:11:33.414Z,101950.78
2018-10-18T20:14:02.847Z,101953.93
2018-10-18T20:16:32.941Z,101953.20
2018-10-18T20:19:02.669Z,101951.80
2018-10-18T20:21:32.581Z,101959.10
2018-10-18T20:24:02.125Z,101959.24
2018-10-18T20:26:31.881Z,101965.16
2018-10-18T20:29:01.385Z,101965.95
2018-10-18T20:31:31.091Z,101962.25
2018-10-18T20:34:00.460Z,101960.71
2018-10-18T20:36:31.032Z,101958.79
2018-10-18T20:39:00.953Z,101955.75
2018-10-18T20:41:30.672Z,101954.73
2018-10-18T20:44:00.220Z,101951.13
2018-10-18T20:46:30.836Z,101952.46
2018-10-18T20:49:00.608Z,101959.45
2018-10-18T20:51:31.443Z,101952.88
2018-10-18T20:54:01.267Z,101949.10
2018-10-18T20:56:32.097Z,101951.94
2018-10-18T20:59:01.565Z,101944.63
2018-10-18T21:01:31.510Z,101955.47
2018-10-18T21:04:01.259Z,101953.09
2018-10-18T21:06:34.049Z,101950.16
2018-10-18T21:09:11.072Z,101953.93
2018-10-18T21:11:41.242Z,101951.41
2018-10-18T21:14:10.796Z,101951.94
2018-10-18T21:16:40.226Z,101952.42
2018-10-18T21:19:09.665Z,101945.36
2018-10-18T21:21:39.330Z,101947.50
2018-10-18T21:24:08.996Z,101945.71
2018-10-18T21:26:38.363Z,101943.52
2018-10-18T21:29:08.659Z,101937.28
2018-10-18T21:31:38.060Z,101930.75
2018-10-18T21:34:07.595Z,101924.11
2018-10-18T21:36:37.595Z,101925.85
2018-10-18T21:39:08.126Z,101925.47
2018-10-18T21:41:37.947Z,101925.85
2018-10-18T21:44:07.299Z,101923.20
2018-10-18T21:46:37.049Z,101929.42
2018-10-18T21:49:06.579Z,101926.42
2018-10-18T21:51:36.256Z,101922.50
2018-10-18T21:54:06.874Z,101926.88
2018-10-18T21:56:36.463Z,101926.88
2018-10-18T21:59:06.198Z,101932.98
2018-10-18T22:01:35.606Z,101934.45
2018-10-18T22:04:05.186Z,101929.84
2018-10-18T22:06:34.926Z,101936.73
2018-10-18T22:09:06.100Z,101932.33
2018-10-18T22:11:35.959Z,101930.33
2018-10-18T22:14:06.327Z,101930.23
2018-10-18T22:16:36.324Z,101926.77
2018-10-18T22:19:06.920Z,101927.57
2018-10-18T22:21:36.703Z,101927.70
2018-10-18T22:24:06.886Z,101917.08
2018-10-18T22:26:36.186Z,101922.64
2018-10-18T22:29:06.124Z,101911.87
2018-10-18T22:31:35.812Z,101919.04
2018-10-18T22:34:05.312Z,101915.61
2018-10-18T22:36:34.906Z,101916.38
2018-10-18T22:39:07.663Z,101910.30
2018-10-18T22:41:37.213Z,101911.21
2018-10-18T22:44:07.848Z,101912.81
2018-10-18T22:46:37.215Z,101905.90
2018-10-18T22:49:07.768Z,101911.21
2018-10-18T22:51:37.265Z,101911.28
2018-10-18T22:54:07.962Z,101905.13
2018-10-18T22:56:37.496Z,101908.31
2018-10-18T22:59:06.976Z,101907.05
2018-10-18T23:01:36.697Z,101905.58
2018-10-18T23:04:06.486Z,101901.25
2018-10-18T23:06:35.982Z,101900.48
2018-10-18T23:09:08.677Z,101905.58
2018-10-18T23:11:38.046Z,101905.66
2018-10-18T23:14:10.201Z,101895.94
2018-10-18T23:16:40.148Z,101900.62
2018-10-18T23:19:10.518Z,101899.81
2018-10-18T23:21:40.121Z,101899.53
2018-10-18T23:24:10.236Z,101895.76
2018-10-18T23:26:39.776Z,101901.39
2018-10-18T23:29:10.607Z,101901.53
2018-10-18T23:31:39.878Z,101902.75
2018-10-18T23:34:09.384Z,101905.92
2018-10-18T23:36:38.905Z,101904.48
2018-10-18T23:39:09.787Z,101907.14
2018-10-18T23:41:39.120Z,101901.62
2018-10-18T23:44:08.733Z,101896.23
2018-10-18T23:46:38.275Z,101887.44
2018-10-18T23:49:07.652Z,101887.50
2018-10-18T23:51:37.253Z,101888.27
2018-10-18T23:54:07.050Z,101886.20
2018-10-18T23:56:37.084Z,101881.77
2018-10-18T23:59:08.137Z,101891.73
